createdAt,value
2019-04-21T00:01:54.538Z,17.00
2019-04-21T00:04:33.271Z,17.50
2019-04-21T00:07:14.445Z,18.03
2019-04-21T00:09:50.256Z,16.33
2019-04-21T00:12:15.405Z,18.20
2019-04-21T00:14:36.969Z,18.10
2019-04-21T00:17:00.552Z,19.23
2019-04-21T00:19:39.514Z,18.50
2019-04-21T00:22:19.150Z,18.03
2019-04-21T00:24:49.751Z,18.57
2019-04-21T00:27:26.612Z,17.60
2019-04-21T00:29:58.225Z,17.30
2019-04-21T00:32:21.967Z,16.93
2019-04-21T00:34:43.255Z,18.07
2019-04-21T00:37:18.895Z,16.47
2019-04-21T00:42:29.153Z,16.97
2019-04-21T00:44:59.161Z,16.37
2019-04-21T00:47:32.948Z,18.00
2019-04-21T00:50:00.275Z,18.47
2019-04-21T00:52:49.160Z,18.83
2019-04-21T00:55:18.106Z,18.70
2019-04-21T00:57:38.882Z,17.17
2019-04-21T01:00:08.911Z,19.10
2019-04-21T01:02:41.399Z,18.50
2019-04-21T01:05:15.139Z,18.27
2019-04-21T01:07:37.126Z,19.17
2019-04-21T01:09:58.959Z,19.07
2019-04-21T01:12:37.379Z,19.80
2019-04-21T01:15:11.050Z,19.43
2019-04-21T01:17:38.545Z,18.63
2019-04-21T01:20:01.220Z,20.90
2019-04-21T01:22:16.158Z,20.13
2019-04-21T01:24:48.738Z,19.37
2019-04-21T01:27:26.386Z,20.07
2019-04-21T01:30:05.680Z,19.30
2019-04-21T01:32:35.659Z,19.37
2019-04-21T01:35:02.357Z,18.33
2019-04-21T01:37:44.171Z,19.43
2019-04-21T01:40:08.480Z,19.90
2019-04-21T01:42:45.946Z,18.03
2019-04-21T01:45:09.355Z,19.97
2019-04-21T01:47:44.902Z,22.17
2019-04-21T01:50:02.581Z,21.70
2019-04-21T01:52:50.166Z,20.53
2019-04-21T01:55:26.389Z,20.27
2019-04-21T01:57:55.197Z,20.00
2019-04-21T02:00:23.438Z,20.10
2019-04-21T02:03:10.362Z,19.20
2019-04-21T02:05:37.553Z,19.90
2019-04-21T02:08:02.523Z,20.80
2019-04-21T02:10:41.558Z,21.40
2019-04-21T02:13:03.432Z,20.70
2019-04-21T02:15:36.485Z,18.93
2019-04-21T02:18:07.315Z,19.63
2019-04-21T02:20:25.927Z,19.43
2019-04-21T02:23:20.431Z,20.63
2019-04-21T02:25:41.239Z,19.87
2019-04-21T02:28:16.391Z,19.57
2019-04-21T02:30:56.899Z,19.40
2019-04-21T02:33:26.070Z,20.13
2019-04-21T02:36:18.982Z,19.53
2019-04-21T02:38:20.555Z,19.13
2019-04-21T02:43:22.917Z,19.03
2019-04-21T02:45:53.681Z,19.47
2019-04-21T02:50:47.171Z,20.17
2019-04-21T02:53:47.818Z,17.53
2019-04-21T02:55:46.483Z,19.20
2019-04-21T02:58:34.514Z,21.03
2019-04-21T03:01:03.291Z,19.33
2019-04-21T03:03:43.683Z,18.50
2019-04-21T03:06:12.130Z,18.63
2019-04-21T03:18:54.262Z,18.07
2019-04-21T03:23:46.061Z,18.23
2019-04-21T03:26:20.407Z,19.37
2019-04-21T03:28:43.473Z,18.30
2019-04-21T03:34:18.193Z,20.57
2019-04-21T03:36:41.073Z,21.20
2019-04-21T03:41:32.313Z,21.40
2019-04-21T03:43:44.206Z,20.43
2019-04-21T03:46:16.443Z,19.17
2019-04-21T03:49:02.441Z,20.40
2019-04-21T03:56:27.214Z,19.80
2019-04-21T03:58:54.172Z,20.10
2019-04-21T04:04:14.977Z,19.33
2019-04-21T04:06:56.058Z,21.23
2019-04-21T04:12:01.105Z,19.50
2019-04-21T04:14:38.834Z,21.97
2019-04-21T04:19:40.140Z,19.50
2019-04-21T04:22:24.876Z,18.63
2019-04-21T04:27:12.705Z,21.20
2019-04-21T04:34:41.214Z,25.70
2019-04-21T04:37:16.655Z,21.33
2019-04-21T04:42:37.243Z,19.97
2019-04-21T04:47:20.591Z,21.17
2019-04-21T04:49:48.135Z,19.60
2019-04-21T04:52:27.738Z,19.27
2019-04-21T04:57:19.526Z,21.13
2019-04-21T04:59:43.055Z,21.60
2019-04-21T05:02:20.061Z,23.00
2019-04-21T05:07:17.470Z,20.40
2019-04-21T05:09:47.250Z,19.90
2019-04-21T05:12:24.813Z,18.70
2019-04-21T05:17:14.162Z,19.60
2019-04-21T05:22:17.327Z,20.17
2019-04-21T05:24:30.354Z,22.47
2019-04-21T05:26:58.440Z,19.80
2019-04-21T05:29:40.267Z,18.73
2019-04-21T05:32:14.063Z,18.57
2019-04-21T05:34:53.341Z,18.83
2019-04-21T05:37:30.140Z,18.13
2019-04-21T05:39:55.837Z,18.30
2019-04-21T05:42:27.419Z,17.73
2019-04-21T05:45:12.695Z,20.93
2019-04-21T05:47:57.884Z,19.07
2019-04-21T05:50:06.532Z,17.00
2019-04-21T05:52:34.066Z,19.27
2019-04-21T05:55:09.593Z,19.00
2019-04-21T05:57:43.143Z,17.87
2019-04-21T06:00:13.624Z,17.90
2019-04-21T06:02:43.432Z,19.57
2019-04-21T06:05:20.360Z,17.97
2019-04-21T06:07:39.447Z,18.73
2019-04-21T06:10:12.402Z,18.50
2019-04-21T06:12:57.711Z,17.60
2019-04-21T06:15:13.806Z,16.20
2019-04-21T06:17:44.687Z,16.90
2019-04-21T06:20:14.084Z,18.67
2019-04-21T06:22:46.327Z,17.47
2019-04-21T06:27:45.796Z,17.93
2019-04-21T06:30:10.344Z,18.47
2019-04-21T06:35:40.206Z,18.30
2019-04-21T06:38:07.868Z,19.10
2019-04-21T06:40:35.761Z,18.70
2019-04-21T06:43:12.985Z,20.80
2019-04-21T06:45:34.817Z,19.13
2019-04-21T06:48:06.205Z,18.23
2019-04-21T06:50:40.072Z,20.97
2019-04-21T06:53:03.982Z,17.93
2019-04-21T06:55:32.044Z,17.50
2019-04-21T06:58:06.651Z,18.00
2019-04-21T07:00:33.026Z,17.80
2019-04-21T07:03:14.144Z,18.17
2019-04-21T07:05:42.646Z,17.80
2019-04-21T07:08:25.980Z,18.67
2019-04-21T07:10:41.669Z,17.47
2019-04-21T07:13:03.576Z,17.30
2019-04-21T07:15:39.119Z,17.03
2019-04-21T07:18:15.695Z,18.13
2019-04-21T07:20:36.708Z,15.87
2019-04-21T07:23:13.311Z,18.87
2019-04-21T07:25:39.106Z,17.30
2019-04-21T07:28:12.868Z,17.10
2019-04-21T07:30:43.630Z,17.37
2019-04-21T07:33:37.387Z,16.70
2019-04-21T07:35:38.039Z,18.03
2019-04-21T07:38:08.327Z,18.07
2019-04-21T07:40:33.385Z,16.03
2019-04-21T07:43:03.915Z,15.70
2019-04-21T07:45:35.117Z,17.60
2019-04-21T07:48:14.336Z,17.07
2019-04-21T07:51:07.516Z,16.27
2019-04-21T07:53:59.228Z,15.80
2019-04-21T07:56:06.542Z,15.70
2019-04-21T07:58:56.347Z,16.47
2019-04-21T08:01:24.280Z,16.03
2019-04-21T08:03:46.071Z,15.53
2019-04-21T08:06:29.582Z,15.77
2019-04-21T08:08:52.883Z,16.57
2019-04-21T08:11:19.725Z,16.57
2019-04-21T08:13:53.001Z,15.57
2019-04-21T08:16:25.422Z,15.57
2019-04-21T08:18:52.365Z,16.03
2019-04-21T08:21:20.660Z,17.40
2019-04-21T08:23:46.706Z,16.57
2019-04-21T08:26:24.278Z,15.57
2019-04-21T08:28:52.379Z,20.67
2019-04-21T08:31:32.663Z,15.27
2019-04-21T08:36:32.641Z,14.93
2019-04-21T08:38:53.530Z,15.53
2019-04-21T08:41:27.969Z,15.10
2019-04-21T08:43:51.352Z,16.43
2019-04-21T08:46:25.332Z,14.33
2019-04-21T08:48:55.494Z,15.23
2019-04-21T08:56:31.915Z,15.97
2019-04-21T08:59:18.979Z,16.30
2019-04-21T09:01:50.764Z,15.67
2019-04-21T09:04:19.919Z,15.13
2019-04-21T09:06:59.169Z,15.20
2019-04-21T09:09:24.439Z,14.10
2019-04-21T09:11:54.319Z,14.80
2019-04-21T09:14:17.859Z,14.97
2019-04-21T09:16:47.572Z,15.87
2019-04-21T09:19:35.366Z,13.63
2019-04-21T09:21:53.005Z,13.77
2019-04-21T09:24:24.617Z,14.20
2019-04-21T09:26:55.635Z,14.30
2019-04-21T09:29:10.912Z,13.87
2019-04-21T09:31:37.954Z,14.90
2019-04-21T09:34:06.509Z,13.40
2019-04-21T09:36:41.287Z,15.87
2019-04-21T09:39:12.960Z,17.33
2019-04-21T09:41:38.187Z,16.30
2019-04-21T09:44:09.933Z,16.43
2019-04-21T09:46:44.343Z,15.27
2019-04-21T09:49:12.053Z,15.73
2019-04-21T09:51:37.354Z,14.97
2019-04-21T09:54:12.065Z,14.77
2019-04-21T09:56:45.459Z,15.37
2019-04-21T09:59:14.850Z,15.03
2019-04-21T10:01:49.104Z,15.73
2019-04-21T10:04:07.668Z,16.47
2019-04-21T10:06:37.252Z,19.20
2019-04-21T10:09:10.260Z,14.90
2019-04-21T10:11:37.643Z,16.03
2019-04-21T10:14:07.448Z,14.47
2019-04-21T10:16:54.116Z,14.67
2019-04-21T10:19:31.960Z,15.50
2019-04-21T10:22:02.726Z,15.10
2019-04-21T10:24:30.839Z,16.10
2019-04-21T10:26:59.221Z,14.70
2019-04-21T10:29:30.911Z,14.00
2019-04-21T10:31:59.511Z,15.67
2019-04-21T10:34:29.299Z,14.60
2019-04-21T10:36:58.659Z,14.90
2019-04-21T10:39:27.343Z,13.53
2019-04-21T10:41:57.265Z,15.87
2019-04-21T10:44:27.229Z,17.47
2019-04-21T10:46:56.031Z,15.30
2019-04-21T10:49:24.546Z,15.50
2019-04-21T10:51:53.204Z,15.00
2019-04-21T10:54:21.903Z,14.90
2019-04-21T10:56:50.803Z,13.60
2019-04-21T10:59:20.459Z,13.67
2019-04-21T11:01:49.168Z,14.30
2019-04-21T11:04:25.330Z,12.80
2019-04-21T11:06:50.771Z,13.77
2019-04-21T11:09:20.043Z,14.33
2019-04-21T11:11:50.327Z,14.40
2019-04-21T11:14:18.694Z,13.57
2019-04-21T11:16:49.268Z,13.73
2019-04-21T11:19:19.951Z,13.23
2019-04-21T11:21:49.344Z,12.60
2019-04-21T11:24:18.147Z,13.13
2019-04-21T11:26:47.744Z,13.37
2019-04-21T11:29:17.067Z,13.67
2019-04-21T11:31:45.557Z,13.23
2019-04-21T11:34:15.483Z,13.93
2019-04-21T11:36:44.060Z,14.60
2019-04-21T11:39:24.621Z,14.00
2019-04-21T11:41:45.629Z,12.47
2019-04-21T11:44:14.155Z,14.07
2019-04-21T11:46:42.702Z,13.30
2019-04-21T11:49:12.464Z,14.00
2019-04-21T11:51:40.916Z,14.07
2019-04-21T11:54:09.331Z,14.47
2019-04-21T11:56:38.918Z,13.37
2019-04-21T11:59:08.007Z,14.03
2019-04-21T12:01:36.768Z,13.40
2019-04-21T12:04:05.844Z,13.07
2019-04-21T12:06:41.557Z,13.43
2019-04-21T12:09:08.315Z,12.77
2019-04-21T12:11:37.090Z,12.83
2019-04-21T12:14:06.188Z,13.13
2019-04-21T12:16:35.098Z,12.67
2019-04-21T12:19:05.009Z,12.83
2019-04-21T12:21:46.613Z,14.97
2019-04-21T12:24:04.022Z,13.60
2019-04-21T12:26:33.765Z,13.73
2019-04-21T12:29:03.832Z,13.70
2019-04-21T12:31:49.658Z,13.30
2019-04-21T12:34:19.473Z,14.50
2019-04-21T12:36:48.737Z,14.03
2019-04-21T12:39:18.650Z,15.30
2019-04-21T12:41:47.198Z,13.43
2019-04-21T12:44:15.923Z,13.93
2019-04-21T12:46:45.585Z,14.20
2019-04-21T12:49:14.326Z,15.13
2019-04-21T12:51:44.102Z,14.27
2019-04-21T12:54:12.846Z,12.90
2019-04-21T12:56:41.398Z,13.50
2019-04-21T12:59:10.022Z,13.80
2019-04-21T13:01:39.013Z,13.10
2019-04-21T13:04:08.169Z,13.93
2019-04-21T13:06:37.346Z,12.63
2019-04-21T13:09:10.785Z,13.80
2019-04-21T13:11:37.358Z,12.67
2019-04-21T13:14:06.243Z,12.53
2019-04-21T13:16:34.626Z,13.53
2019-04-21T13:19:03.099Z,13.77
2019-04-21T13:21:31.993Z,13.17
2019-04-21T13:24:01.053Z,14.13
2019-04-21T13:26:39.441Z,13.17
2019-04-21T13:29:00.494Z,12.83
2019-04-21T13:31:29.994Z,12.97
2019-04-21T13:33:59.859Z,13.67
2019-04-21T13:36:29.534Z,13.60
2019-04-21T13:39:44.581Z,13.80
2019-04-21T13:42:00.539Z,12.70
2019-04-21T13:44:19.569Z,13.37
2019-04-21T13:46:49.245Z,14.20
2019-04-21T13:49:19.201Z,12.10
2019-04-21T13:51:48.078Z,13.87
2019-04-21T13:54:17.864Z,12.63
2019-04-21T13:56:46.939Z,13.30
2019-04-21T13:59:16.086Z,13.47
2019-04-21T14:01:45.700Z,13.17
2019-04-21T14:04:15.859Z,12.83
2019-04-21T14:06:44.750Z,13.40
2019-04-21T14:09:13.818Z,13.47
2019-04-21T14:11:43.487Z,11.70
2019-04-21T14:14:12.423Z,13.33
2019-04-21T14:16:42.302Z,13.87
2019-04-21T14:19:11.077Z,12.90
2019-04-21T14:21:39.501Z,13.37
2019-04-21T14:24:08.856Z,12.30
2019-04-21T14:26:38.548Z,13.30
2019-04-21T14:29:07.754Z,13.60
2019-04-21T14:31:38.119Z,12.87
2019-04-21T14:34:07.940Z,12.43
2019-04-21T14:36:37.123Z,13.37
2019-04-21T14:39:08.589Z,12.70
2019-04-21T14:41:38.045Z,13.57
2019-04-21T14:44:06.979Z,15.60
2019-04-21T14:46:39.671Z,13.47
2019-04-21T14:49:13.069Z,13.60
2019-04-21T14:54:38.548Z,14.13
2019-04-21T14:57:07.341Z,12.57
2019-04-21T14:59:37.094Z,12.40
2019-04-21T15:02:07.727Z,12.40
2019-04-21T15:04:37.593Z,12.40
2019-04-21T15:07:07.552Z,13.13
2019-04-21T15:09:38.937Z,12.50
2019-04-21T15:12:10.099Z,12.70
2019-04-21T15:14:40.157Z,11.80
2019-04-21T15:17:10.464Z,13.97
2019-04-21T15:19:42.905Z,12.90
2019-04-21T15:22:10.263Z,13.03
2019-04-21T15:24:40.316Z,12.47
2019-04-21T15:27:09.248Z,12.73
2019-04-21T15:29:38.496Z,12.60
2019-04-21T15:32:08.397Z,11.93
2019-04-21T15:34:38.122Z,12.17
2019-04-21T15:37:08.060Z,12.43
2019-04-21T15:39:36.797Z,12.50
2019-04-21T15:42:06.216Z,12.73
2019-04-21T15:44:34.732Z,12.30
2019-04-21T15:47:04.030Z,12.13
2019-04-21T15:49:58.831Z,11.07
2019-04-21T15:52:22.263Z,11.87
2019-04-21T15:54:52.495Z,13.30
2019-04-21T15:57:33.491Z,11.50
2019-04-21T16:00:04.646Z,12.10
2019-04-21T16:02:36.882Z,11.67
2019-04-21T16:05:08.833Z,12.90
2019-04-21T16:07:40.671Z,13.10
2019-04-21T16:10:26.542Z,12.80
2019-04-21T16:12:40.645Z,14.23
2019-04-21T16:15:12.390Z,13.53
2019-04-21T16:17:41.442Z,13.90
2019-04-21T16:20:12.242Z,13.63
2019-04-21T16:22:42.222Z,13.53
2019-04-21T16:25:12.804Z,13.30
2019-04-21T16:27:41.519Z,14.93
2019-04-21T16:30:12.052Z,12.80
2019-04-21T16:32:41.940Z,13.73
2019-04-21T16:35:14.052Z,12.60
2019-04-21T16:37:41.570Z,12.23
2019-04-21T16:40:11.743Z,13.27
2019-04-21T16:42:40.687Z,11.60
2019-04-21T16:45:12.684Z,12.40
2019-04-21T16:47:41.978Z,12.10
2019-04-21T16:50:15.956Z,14.33
2019-04-21T16:52:49.989Z,14.33
2019-04-21T16:55:35.326Z,13.57
2019-04-21T16:58:13.131Z,14.07
2019-04-21T17:00:43.176Z,12.90
2019-04-21T17:03:08.350Z,13.90
2019-04-21T17:05:36.730Z,13.07
2019-04-21T17:08:06.402Z,12.60
2019-04-21T17:10:35.020Z,13.23
2019-04-21T17:13:03.838Z,14.03
2019-04-21T17:15:51.873Z,13.40
2019-04-21T17:18:20.770Z,13.53
2019-04-21T17:20:42.042Z,13.97
2019-04-21T17:23:04.003Z,13.00
2019-04-21T17:25:32.390Z,12.87
2019-04-21T17:28:01.609Z,13.37
2019-04-21T17:30:30.639Z,12.53
2019-04-21T17:32:59.508Z,13.30
2019-04-21T17:35:29.000Z,13.00
2019-04-21T17:37:58.345Z,12.80
2019-04-21T17:40:27.517Z,12.70
2019-04-21T17:43:03.225Z,14.07
2019-04-21T17:45:27.021Z,14.50
2019-04-21T17:48:03.231Z,15.37
2019-04-21T17:50:31.585Z,14.63
2019-04-21T17:53:16.173Z,13.33
2019-04-21T17:55:52.973Z,14.20
2019-04-21T17:58:34.183Z,14.50
2019-04-21T18:03:59.043Z,14.33
2019-04-21T18:06:02.470Z,14.43
2019-04-21T18:08:36.927Z,14.07
2019-04-21T18:11:01.185Z,14.87
2019-04-21T18:13:23.092Z,13.90
2019-04-21T18:16:01.662Z,13.77
2019-04-21T18:18:28.737Z,15.40
2019-04-21T18:21:02.893Z,14.40
2019-04-21T18:23:46.974Z,13.67
2019-04-21T18:26:11.545Z,14.90
2019-04-21T18:28:36.651Z,15.60
2019-04-21T18:31:07.751Z,14.60
2019-04-21T18:33:40.396Z,14.50
2019-04-21T18:36:34.941Z,15.30
2019-04-21T18:39:28.560Z,15.40
2019-04-21T18:42:04.987Z,14.77
2019-04-21T18:44:53.445Z,15.47
2019-04-21T18:47:35.232Z,15.57
2019-04-21T18:50:21.959Z,16.67
2019-04-21T18:53:19.468Z,16.17
2019-04-21T18:55:45.133Z,16.10
2019-04-21T18:58:11.996Z,17.23
2019-04-21T19:00:42.205Z,16.10
2019-04-21T19:03:11.874Z,16.07
2019-04-21T19:05:58.260Z,17.60
2019-04-21T19:08:40.447Z,15.20
2019-04-21T19:11:14.854Z,15.87
2019-04-21T19:13:53.113Z,16.80
2019-04-21T19:16:31.638Z,15.93
2019-04-21T19:18:50.611Z,15.60
2019-04-21T19:21:10.178Z,15.83
2019-04-21T19:24:05.993Z,16.93
2019-04-21T19:28:56.075Z,15.80
2019-04-21T19:31:24.801Z,17.33
2019-04-21T19:33:40.411Z,18.37
2019-04-21T19:35:59.322Z,17.50
2019-04-21T19:38:35.015Z,17.90
2019-04-21T19:41:18.863Z,17.17
2019-04-21T19:43:49.262Z,18.73
2019-04-21T19:46:14.380Z,17.10
2019-04-21T19:48:55.226Z,18.90
2019-04-21T19:51:17.202Z,19.63
2019-04-21T19:53:42.603Z,19.20
2019-04-21T19:56:00.393Z,20.03
2019-04-21T19:58:33.786Z,18.20
2019-04-21T20:00:59.759Z,21.10
2019-04-21T20:03:28.560Z,18.17
2019-04-21T20:06:10.300Z,18.10
2019-04-21T20:08:43.411Z,19.77
2019-04-21T20:11:17.808Z,18.57
2019-04-21T20:14:13.819Z,17.33
2019-04-21T20:16:19.215Z,17.90
2019-04-21T20:18:37.886Z,17.97
2019-04-21T20:20:59.538Z,18.10
2019-04-21T20:23:32.786Z,18.60
2019-04-21T20:26:02.289Z,17.03
2019-04-21T20:28:44.278Z,16.23
2019-04-21T20:31:19.195Z,16.90
2019-04-21T20:33:53.870Z,16.43
2019-04-21T20:36:23.901Z,16.13
2019-04-21T20:38:40.370Z,16.10
2019-04-21T20:41:15.862Z,16.10
2019-04-21T20:43:45.817Z,17.50
2019-04-21T20:46:11.999Z,16.40
2019-04-21T20:48:45.202Z,16.93
2019-04-21T20:51:18.013Z,16.07
2019-04-21T20:53:46.468Z,15.90
2019-04-21T20:56:11.112Z,18.20
2019-04-21T20:58:46.267Z,16.67
2019-04-21T21:03:47.927Z,16.13
2019-04-21T21:06:19.058Z,16.23
2019-04-21T21:08:49.898Z,15.87
2019-04-21T21:11:15.152Z,17.13
2019-04-21T21:13:52.159Z,17.40
2019-04-21T21:16:29.754Z,18.37
2019-04-21T21:19:08.508Z,16.73
2019-04-21T21:21:20.626Z,17.70
2019-04-21T21:23:52.702Z,19.17
2019-04-21T21:26:25.352Z,18.50
2019-04-21T21:28:45.605Z,17.90
2019-04-21T21:31:17.686Z,16.93
2019-04-21T21:33:58.952Z,16.83
2019-04-21T21:36:19.581Z,18.00
2019-04-21T21:38:54.583Z,17.47
2019-04-21T21:41:13.833Z,15.93
2019-04-21T21:43:37.872Z,16.67
2019-04-21T21:46:22.819Z,16.03
2019-04-21T21:48:47.049Z,15.90
2019-04-21T21:51:15.472Z,15.33
2019-04-21T21:53:38.766Z,15.53
2019-04-21T21:56:07.010Z,18.07
2019-04-21T21:58:40.332Z,16.20
2019-04-21T22:01:08.740Z,15.50
2019-04-21T22:03:41.304Z,16.23
2019-04-21T22:06:13.174Z,15.93
2019-04-21T22:08:38.567Z,15.27
2019-04-21T22:11:08.857Z,15.57
2019-04-21T22:13:46.931Z,14.90
2019-04-21T22:16:12.443Z,15.70
2019-04-21T22:19:03.521Z,16.70
2019-04-21T22:21:18.775Z,15.90
2019-04-21T22:23:47.908Z,16.10
2019-04-21T22:26:09.278Z,15.73
2019-04-21T22:28:37.917Z,15.50
2019-04-21T22:31:16.403Z,15.93
2019-04-21T22:33:44.935Z,17.10
2019-04-21T22:36:20.997Z,17.13
2019-04-21T22:38:47.647Z,15.63
2019-04-21T22:41:21.665Z,17.57
2019-04-21T22:43:43.109Z,15.87
2019-04-21T22:46:10.641Z,16.43
2019-04-21T22:48:38.752Z,16.20
2019-04-21T22:51:18.765Z,16.27
2019-04-21T22:53:44.833Z,20.70
2019-04-21T22:56:14.841Z,16.13
2019-04-21T22:58:42.262Z,16.13
2019-04-21T23:01:09.640Z,16.83
2019-04-21T23:03:42.574Z,16.80
2019-04-21T23:06:16.233Z,16.07
2019-04-21T23:08:43.489Z,17.63
2019-04-21T23:11:12.381Z,15.73
2019-04-21T23:13:40.272Z,17.30
2019-04-21T23:16:09.857Z,17.30
2019-04-21T23:18:52.432Z,16.50
2019-04-21T23:21:19.508Z,17.47
2019-04-21T23:24:01.703Z,14.90
2019-04-21T23:26:26.732Z,16.27
2019-04-21T23:29:01.977Z,17.20
2019-04-21T23:31:29.090Z,18.17
2019-04-21T23:33:42.028Z,16.53
2019-04-21T23:36:16.879Z,17.10
2019-04-21T23:38:44.969Z,16.97
2019-04-21T23:41:13.034Z,17.03
2019-04-21T23:43:44.842Z,16.83
2019-04-21T23:46:22.179Z,16.47
2019-04-21T23:49:01.828Z,17.23
2019-04-21T23:51:25.514Z,16.10
2019-04-21T23:53:43.689Z,17.00
2019-04-21T23:56:14.678Z,15.53
2019-04-21T23:58:45.824Z,15.27
